sensor_id;sensor_type;location;lat;lon;timestamp;P1;durP1;ratioP1;P2;durP2;ratioP2
61104;SDS011;46987;32.638;-115.438;2023-12-29T00:00:47;9.30;;;4.85;;
61104;SDS011;46987;32.638;-115.438;2023-12-29T00:03:14;12.73;;;5.68;;
61104;SDS011;46987;32.638;-115.438;2023-12-29T00:05:40;9.02;;;3.35;;
61104;SDS011;46987;32.638;-115.438;2023-12-29T00:08:07;11.15;;;3.13;;
61104;SDS011;46987;32.638;-115.438;2023-12-29T00:10:34;6.65;;;2.78;;
61104;SDS011;46987;32.638;-115.438;2023-12-29T00:13:02;15.27;;;4.72;;
61104;SDS011;46987;32.638;-115.438;2023-12-29T00:15:29;12.90;;;3.63;;
61104;SDS011;46987;32.638;-115.438;2023-12-29T00:17:55;12.35;;;4.13;;
61104;SDS011;46987;32.638;-115.438;2023-12-29T00:20:22;12.93;;;4.20;;
61104;SDS011;46987;32.638;-115.438;2023-12-29T00:22:48;12.90;;;4.78;;
61104;SDS011;46987;32.638;-115.438;2023-12-29T00:25:15;12.15;;;5.68;;
61104;SDS011;46987;32.638;-115.438;2023-12-29T00:27:41;17.75;;;5.93;;
61104;SDS011;46987;32.638;-115.438;2023-12-29T00:30:11;15.20;;;6.22;;
61104;SDS011;46987;32.638;-115.438;2023-12-29T00:32:38;22.23;;;6.65;;
61104;SDS011;46987;32.638;-115.438;2023-12-29T00:35:04;17.17;;;5.97;;
61104;SDS011;46987;32.638;-115.438;2023-12-29T00:37:31;19.10;;;6.53;;
61104;SDS011;46987;32.638;-115.438;2023-12-29T00:39:58;22.35;;;6.30;;
61104;SDS011;46987;32.638;-115.438;2023-12-29T00:42:24;14.57;;;6.28;;
61104;SDS011;46987;32.638;-115.438;2023-12-29T00:44:51;14.45;;;6.05;;
61104;SDS011;46987;32.638;-115.438;2023-12-29T00:47:19;20.58;;;8.38;;
61104;SDS011;46987;32.638;-115.438;2023-12-29T00:49:46;36.15;;;9.40;;
61104;SDS011;46987;32.638;-115.438;2023-12-29T00:52:12;18.92;;;8.02;;
61104;SDS011;46987;32.638;-115.438;2023-12-29T00:54:40;24.27;;;8.13;;
61104;SDS011;46987;32.638;-115.438;2023-12-29T00:57:06;22.10;;;8.57;;
61104;SDS011;46987;32.638;-115.438;2023-12-29T00:59:36;22.83;;;8.27;;
61104;SDS011;46987;32.638;-115.438;2023-12-29T01:02:03;20.38;;;7.30;;
61104;SDS011;46987;32.638;-115.438;2023-12-29T01:04:31;19.13;;;6.63;;
61104;SDS011;46987;32.638;-115.438;2023-12-29T01:06:58;22.25;;;8.02;;
61104;SDS011;46987;32.638;-115.438;2023-12-29T01:09:25;24.70;;;8.35;;
61104;SDS011;46987;32.638;-115.438;2023-12-29T01:11:52;23.48;;;7.32;;
61104;SDS011;46987;32.638;-115.438;2023-12-29T01:14:18;20.13;;;7.93;;
61104;SDS011;46987;32.638;-115.438;2023-12-29T01:16:45;45.35;;;10.63;;
61104;SDS011;46987;32.638;-115.438;2023-12-29T01:19:12;22.90;;;9.80;;
61104;SDS011;46987;32.638;-115.438;2023-12-29T01:21:40;22.73;;;7.90;;
61104;SDS011;46987;32.638;-115.438;2023-12-29T01:24:07;26.15;;;9.95;;
61104;SDS011;46987;32.638;-115.438;2023-12-29T01:26:36;29.15;;;10.45;;
61104;SDS011;46987;32.638;-115.438;2023-12-29T01:29:03;35.03;;;11.65;;
61104;SDS011;46987;32.638;-115.438;2023-12-29T01:31:29;32.35;;;11.32;;
61104;SDS011;46987;32.638;-115.438;2023-12-29T01:33:56;42.08;;;11.77;;
61104;SDS011;46987;32.638;-115.438;2023-12-29T01:36:23;31.45;;;11.98;;
61104;SDS011;46987;32.638;-115.438;2023-12-29T01:38:51;36.92;;;11.40;;
61104;SDS011;46987;32.638;-115.438;2023-12-29T01:41:19;37.97;;;12.80;;
61104;SDS011;46987;32.638;-115.438;2023-12-29T01:46:36;31.35;;;17.25;;
61104;SDS011;46987;32.638;-115.438;2023-12-29T01:49:02;46.75;;;17.30;;
61104;SDS011;46987;32.638;-115.438;2023-12-29T01:51:29;40.33;;;17.02;;
61104;SDS011;46987;32.638;-115.438;2023-12-29T01:53:59;46.63;;;17.20;;
61104;SDS011;46987;32.638;-115.438;2023-12-29T01:56:25;43.63;;;16.85;;
61104;SDS011;46987;32.638;-115.438;2023-12-29T01:58:52;49.28;;;18.08;;
61104;SDS011;46987;32.638;-115.438;2023-12-29T02:01:21;45.97;;;19.50;;
61104;SDS011;46987;32.638;-115.438;2023-12-29T02:03:48;52.10;;;16.65;;
61104;SDS011;46987;32.638;-115.438;2023-12-29T02:06:15;49.60;;;17.55;;
61104;SDS011;46987;32.638;-115.438;2023-12-29T02:08:42;44.83;;;17.70;;
61104;SDS011;46987;32.638;-115.438;2023-12-29T02:11:11;45.65;;;15.75;;
61104;SDS011;46987;32.638;-115.438;2023-12-29T02:13:37;51.60;;;18.52;;
61104;SDS011;46987;32.638;-115.438;2023-12-29T02:16:05;45.28;;;17.85;;
61104;SDS011;46987;32.638;-115.438;2023-12-29T02:18:33;53.47;;;18.67;;
61104;SDS011;46987;32.638;-115.438;2023-12-29T02:21:02;56.75;;;18.23;;
61104;SDS011;46987;32.638;-115.438;2023-12-29T02:23:29;54.38;;;17.90;;
61104;SDS011;46987;32.638;-115.438;2023-12-29T02:25:58;61.60;;;19.77;;
61104;SDS011;46987;32.638;-115.438;2023-12-29T02:28:28;58.90;;;19.55;;
61104;SDS011;46987;32.638;-115.438;2023-12-29T02:30:56;50.53;;;18.33;;
61104;SDS011;46987;32.638;-115.438;2023-12-29T02:33:25;50.55;;;19.45;;
61104;SDS011;46987;32.638;-115.438;2023-12-29T02:35:52;60.42;;;19.60;;
61104;SDS011;46987;32.638;-115.438;2023-12-29T02:38:19;55.58;;;18.73;;
61104;SDS011;46987;32.638;-115.438;2023-12-29T02:40:46;53.38;;;20.25;;
61104;SDS011;46987;32.638;-115.438;2023-12-29T02:43:16;51.50;;;21.13;;
61104;SDS011;46987;32.638;-115.438;2023-12-29T02:45:42;49.25;;;19.33;;
61104;SDS011;46987;32.638;-115.438;2023-12-29T02:48:09;54.63;;;19.75;;
61104;SDS011;46987;32.638;-115.438;2023-12-29T02:50:35;46.85;;;19.30;;
61104;SDS011;46987;32.638;-115.438;2023-12-29T02:53:02;58.55;;;20.92;;
61104;SDS011;46987;32.638;-115.438;2023-12-29T02:55:30;59.83;;;22.08;;
61104;SDS011;46987;32.638;-115.438;2023-12-29T02:57:56;53.05;;;20.77;;
61104;SDS011;46987;32.638;-115.438;2023-12-29T03:00:25;61.50;;;23.10;;
61104;SDS011;46987;32.638;-115.438;2023-12-29T03:02:51;57.22;;;23.85;;
61104;SDS011;46987;32.638;-115.438;2023-12-29T03:05:18;62.60;;;24.25;;
61104;SDS011;46987;32.638;-115.438;2023-12-29T03:07:44;63.25;;;23.33;;
61104;SDS011;46987;32.638;-115.438;2023-12-29T03:10:11;64.13;;;23.27;;
61104;SDS011;46987;32.638;-115.438;2023-12-29T03:12:38;49.40;;;23.45;;
61104;SDS011;46987;32.638;-115.438;2023-12-29T03:15:05;48.60;;;23.45;;
61104;SDS011;46987;32.638;-115.438;2023-12-29T03:17:33;57.15;;;24.45;;
61104;SDS011;46987;32.638;-115.438;2023-12-29T03:20:01;61.22;;;25.77;;
61104;SDS011;46987;32.638;-115.438;2023-12-29T03:22:27;43.88;;;23.30;;
61104;SDS011;46987;32.638;-115.438;2023-12-29T03:24:54;53.00;;;23.17;;
61104;SDS011;46987;32.638;-115.438;2023-12-29T03:27:20;59.10;;;24.45;;
61104;SDS011;46987;32.638;-115.438;2023-12-29T03:29:47;54.55;;;24.17;;
61104;SDS011;46987;32.638;-115.438;2023-12-29T03:32:14;51.70;;;26.05;;
61104;SDS011;46987;32.638;-115.438;2023-12-29T03:34:43;64.32;;;26.00;;
61104;SDS011;46987;32.638;-115.438;2023-12-29T03:37:09;67.90;;;26.95;;
61104;SDS011;46987;32.638;-115.438;2023-12-29T03:39:36;64.80;;;28.52;;
61104;SDS011;46987;32.638;-115.438;2023-12-29T03:42:04;54.00;;;27.63;;
61104;SDS011;46987;32.638;-115.438;2023-12-29T03:44:31;65.00;;;26.85;;
61104;SDS011;46987;32.638;-115.438;2023-12-29T03:46:57;63.60;;;27.73;;
61104;SDS011;46987;32.638;-115.438;2023-12-29T03:49:24;61.33;;;26.88;;
61104;SDS011;46987;32.638;-115.438;2023-12-29T03:51:52;69.47;;;28.48;;
61104;SDS011;46987;32.638;-115.438;2023-12-29T03:54:19;63.55;;;28.40;;
61104;SDS011;46987;32.638;-115.438;2023-12-29T03:56:47;67.50;;;30.50;;
61104;SDS011;46987;32.638;-115.438;2023-12-29T03:59:14;69.30;;;29.88;;
61104;SDS011;46987;32.638;-115.438;2023-12-29T04:01:40;69.35;;;27.88;;
61104;SDS011;46987;32.638;-115.438;2023-12-29T04:04:07;67.35;;;29.27;;
61104;SDS011;46987;32.638;-115.438;2023-12-29T04:06:33;60.05;;;28.05;;
61104;SDS011;46987;32.638;-115.438;2023-12-29T04:09:02;66.13;;;28.88;;
61104;SDS011;46987;32.638;-115.438;2023-12-29T04:11:29;71.28;;;27.88;;
61104;SDS011;46987;32.638;-115.438;2023-12-29T04:13:55;69.00;;;28.80;;
61104;SDS011;46987;32.638;-115.438;2023-12-29T04:16:22;60.67;;;28.70;;
61104;SDS011;46987;32.638;-115.438;2023-12-29T04:18:49;69.25;;;29.85;;
61104;SDS011;46987;32.638;-115.438;2023-12-29T04:21:15;60.22;;;30.05;;
61104;SDS011;46987;32.638;-115.438;2023-12-29T04:23:42;65.72;;;30.85;;
61104;SDS011;46987;32.638;-115.438;2023-12-29T04:26:10;60.58;;;28.65;;
61104;SDS011;46987;32.638;-115.438;2023-12-29T04:28:37;79.93;;;32.28;;
61104;SDS011;46987;32.638;-115.438;2023-12-29T04:31:03;70.88;;;32.20;;
61104;SDS011;46987;32.638;-115.438;2023-12-29T04:33:30;78.70;;;31.67;;
61104;SDS011;46987;32.638;-115.438;2023-12-29T04:35:57;70.47;;;31.17;;
61104;SDS011;46987;32.638;-115.438;2023-12-29T04:38:24;65.63;;;29.38;;
61104;SDS011;46987;32.638;-115.438;2023-12-29T04:40:51;78.18;;;33.08;;
61104;SDS011;46987;32.638;-115.438;2023-12-29T04:43:19;82.25;;;33.03;;
61104;SDS011;46987;32.638;-115.438;2023-12-29T04:45:46;89.40;;;34.35;;
61104;SDS011;46987;32.638;-115.438;2023-12-29T04:48:12;76.57;;;31.83;;
61104;SDS011;46987;32.638;-115.438;2023-12-29T04:50:39;72.93;;;33.42;;
61104;SDS011;46987;32.638;-115.438;2023-12-29T04:53:06;85.35;;;32.15;;
61104;SDS011;46987;32.638;-115.438;2023-12-29T04:55:32;77.18;;;31.80;;
61104;SDS011;46987;32.638;-115.438;2023-12-29T04:57:59;79.97;;;33.65;;
61104;SDS011;46987;32.638;-115.438;2023-12-29T05:00:27;70.60;;;32.15;;
61104;SDS011;46987;32.638;-115.438;2023-12-29T05:02:53;67.20;;;31.50;;
61104;SDS011;46987;32.638;-115.438;2023-12-29T05:05:20;78.10;;;33.72;;
61104;SDS011;46987;32.638;-115.438;2023-12-29T05:07:47;66.47;;;33.28;;
61104;SDS011;46987;32.638;-115.438;2023-12-29T05:10:13;69.15;;;33.08;;
61104;SDS011;46987;32.638;-115.438;2023-12-29T05:12:40;65.15;;;31.58;;
61104;SDS011;46987;32.638;-115.438;2023-12-29T05:15:08;92.40;;;35.53;;
61104;SDS011;46987;32.638;-115.438;2023-12-29T05:17:37;87.53;;;34.83;;
61104;SDS011;46987;32.638;-115.438;2023-12-29T05:20:06;77.15;;;34.00;;
61104;SDS011;46987;32.638;-115.438;2023-12-29T05:22:32;79.07;;;34.22;;
61104;SDS011;46987;32.638;-115.438;2023-12-29T05:24:59;81.38;;;36.90;;
61104;SDS011;46987;32.638;-115.438;2023-12-29T05:27:26;92.97;;;40.50;;
61104;SDS011;46987;32.638;-115.438;2023-12-29T05:29:53;91.00;;;41.53;;
61104;SDS011;46987;32.638;-115.438;2023-12-29T05:32:19;102.47;;;50.80;;
61104;SDS011;46987;32.638;-115.438;2023-12-29T05:34:47;130.25;;;59.40;;
61104;SDS011;46987;32.638;-115.438;2023-12-29T05:37:14;123.20;;;61.15;;
61104;SDS011;46987;32.638;-115.438;2023-12-29T05:39:41;131.27;;;63.38;;
61104;SDS011;46987;32.638;-115.438;2023-12-29T05:42:08;144.77;;;65.40;;
61104;SDS011;46987;32.638;-115.438;2023-12-29T05:44:35;128.82;;;59.60;;
61104;SDS011;46987;32.638;-115.438;2023-12-29T05:47:02;102.82;;;48.65;;
61104;SDS011;46987;32.638;-115.438;2023-12-29T05:49:29;96.32;;;47.28;;
61104;SDS011;46987;32.638;-115.438;2023-12-29T05:51:58;97.60;;;46.70;;
61104;SDS011;46987;32.638;-115.438;2023-12-29T05:54:24;96.85;;;47.00;;
61104;SDS011;46987;32.638;-115.438;2023-12-29T05:56:51;104.25;;;50.50;;
61104;SDS011;46987;32.638;-115.438;2023-12-29T05:59:17;112.10;;;50.60;;
61104;SDS011;46987;32.638;-115.438;2023-12-29T06:01:44;103.07;;;48.08;;
61104;SDS011;46987;32.638;-115.438;2023-12-29T06:04:10;107.28;;;48.47;;
61104;SDS011;46987;32.638;-115.438;2023-12-29T06:06:37;101.88;;;48.47;;
61104;SDS011;46987;32.638;-115.438;2023-12-29T06:09:05;95.68;;;46.42;;
61104;SDS011;46987;32.638;-115.438;2023-12-29T06:11:32;87.75;;;44.45;;
61104;SDS011;46987;32.638;-115.438;2023-12-29T06:13:59;102.82;;;46.97;;
61104;SDS011;46987;32.638;-115.438;2023-12-29T06:16:25;97.72;;;43.90;;
61104;SDS011;46987;32.638;-115.438;2023-12-29T06:18:53;115.05;;;42.05;;
61104;SDS011;46987;32.638;-115.438;2023-12-29T06:21:19;109.78;;;43.65;;
61104;SDS011;46987;32.638;-115.438;2023-12-29T06:23:46;105.38;;;43.72;;
61104;SDS011;46987;32.638;-115.438;2023-12-29T06:26:17;87.28;;;42.78;;
61104;SDS011;46987;32.638;-115.438;2023-12-29T06:28:44;93.50;;;43.35;;
61104;SDS011;46987;32.638;-115.438;2023-12-29T06:31:12;88.25;;;43.38;;
61104;SDS011;46987;32.638;-115.438;2023-12-29T06:33:40;99.10;;;43.40;;
61104;SDS011;46987;32.638;-115.438;2023-12-29T06:36:07;107.20;;;45.38;;
61104;SDS011;46987;32.638;-115.438;2023-12-29T06:38:34;85.03;;;44.92;;
61104;SDS011;46987;32.638;-115.438;2023-12-29T06:41:01;97.18;;;42.55;;
61104;SDS011;46987;32.638;-115.438;2023-12-29T06:43:30;99.68;;;42.58;;
61104;SDS011;46987;32.638;-115.438;2023-12-29T06:45:57;106.13;;;43.03;;
61104;SDS011;46987;32.638;-115.438;2023-12-29T06:48:23;85.72;;;39.25;;
61104;SDS011;46987;32.638;-115.438;2023-12-29T06:50:50;111.85;;;40.60;;
61104;SDS011;46987;32.638;-115.438;2023-12-29T06:53:16;89.32;;;38.95;;
61104;SDS011;46987;32.638;-115.438;2023-12-29T06:55:43;84.53;;;37.90;;
61104;SDS011;46987;32.638;-115.438;2023-12-29T06:58:10;89.53;;;37.53;;
61104;SDS011;46987;32.638;-115.438;2023-12-29T07:00:38;84.13;;;37.63;;
61104;SDS011;46987;32.638;-115.438;2023-12-29T07:03:05;91.47;;;40.72;;
61104;SDS011;46987;32.638;-115.438;2023-12-29T07:05:31;88.03;;;37.72;;
61104;SDS011;46987;32.638;-115.438;2023-12-29T07:07:58;81.88;;;37.35;;
61104;SDS011;46987;32.638;-115.438;2023-12-29T07:10:25;79.85;;;37.65;;
61104;SDS011;46987;32.638;-115.438;2023-12-29T07:12:51;80.07;;;38.17;;
61104;SDS011;46987;32.638;-115.438;2023-12-29T07:15:18;86.68;;;38.22;;
61104;SDS011;46987;32.638;-115.438;2023-12-29T07:17:46;84.53;;;38.63;;
61104;SDS011;46987;32.638;-115.438;2023-12-29T07:20:13;87.20;;;39.78;;
61104;SDS011;46987;32.638;-115.438;2023-12-29T07:22:40;84.35;;;36.75;;
61104;SDS011;46987;32.638;-115.438;2023-12-29T07:25:06;85.15;;;38.08;;
61104;SDS011;46987;32.638;-115.438;2023-12-29T07:27:33;83.47;;;38.88;;
61104;SDS011;46987;32.638;-115.438;2023-12-29T07:30:00;91.47;;;38.95;;
61104;SDS011;46987;32.638;-115.438;2023-12-29T07:32:26;74.97;;;36.55;;
61104;SDS011;46987;32.638;-115.438;2023-12-29T07:34:55;75.78;;;36.55;;
61104;SDS011;46987;32.638;-115.438;2023-12-29T07:37:22;64.00;;;33.92;;
61104;SDS011;46987;32.638;-115.438;2023-12-29T07:39:48;66.68;;;32.55;;
61104;SDS011;46987;32.638;-115.438;2023-12-29T07:42:15;72.53;;;31.67;;
61104;SDS011;46987;32.638;-115.438;2023-12-29T07:44:43;79.63;;;33.85;;
61104;SDS011;46987;32.638;-115.438;2023-12-29T07:47:09;61.33;;;30.20;;
61104;SDS011;46987;32.638;-115.438;2023-12-29T07:49:37;64.03;;;31.23;;
61104;SDS011;46987;32.638;-115.438;2023-12-29T07:52:06;66.13;;;31.58;;
61104;SDS011;46987;32.638;-115.438;2023-12-29T07:54:32;69.45;;;29.63;;
61104;SDS011;46987;32.638;-115.438;2023-12-29T07:57:01;64.43;;;30.15;;
61104;SDS011;46987;32.638;-115.438;2023-12-29T07:59:27;64.70;;;32.30;;
61104;SDS011;46987;32.638;-115.438;2023-12-29T08:01:53;64.78;;;30.42;;
61104;SDS011;46987;32.638;-115.438;2023-12-29T08:04:20;55.40;;;28.85;;
61104;SDS011;46987;32.638;-115.438;2023-12-29T08:06:47;62.78;;;29.52;;
61104;SDS011;46987;32.638;-115.438;2023-12-29T08:09:15;63.95;;;31.08;;
61104;SDS011;46987;32.638;-115.438;2023-12-29T08:11:42;65.53;;;30.35;;
61104;SDS011;46987;32.638;-115.438;2023-12-29T08:14:09;60.22;;;29.92;;
61104;SDS011;46987;32.638;-115.438;2023-12-29T08:16:37;70.05;;;31.30;;
61104;SDS011;46987;32.638;-115.438;2023-12-29T08:19:04;61.80;;;28.42;;
61104;SDS011;46987;32.638;-115.438;2023-12-29T08:21:32;60.92;;;28.27;;
61104;SDS011;46987;32.638;-115.438;2023-12-29T08:23:59;52.38;;;26.08;;
61104;SDS011;46987;32.638;-115.438;2023-12-29T08:26:27;50.20;;;25.70;;
61104;SDS011;46987;32.638;-115.438;2023-12-29T08:28:54;49.53;;;24.20;;
61104;SDS011;46987;32.638;-115.438;2023-12-29T08:31:21;45.08;;;22.98;;
61104;SDS011;46987;32.638;-115.438;2023-12-29T08:33:52;42.50;;;22.17;;
61104;SDS011;46987;32.638;-115.438;2023-12-29T08:36:21;42.72;;;21.63;;
61104;SDS011;46987;32.638;-115.438;2023-12-29T08:38:47;37.88;;;20.83;;
61104;SDS011;46987;32.638;-115.438;2023-12-29T08:41:14;42.28;;;22.33;;
61104;SDS011;46987;32.638;-115.438;2023-12-29T08:43:43;46.00;;;23.05;;
61104;SDS011;46987;32.638;-115.438;2023-12-29T08:46:10;44.72;;;23.52;;
61104;SDS011;46987;32.638;-115.438;2023-12-29T08:48:37;43.45;;;23.42;;
61104;SDS011;46987;32.638;-115.438;2023-12-29T08:51:04;45.28;;;23.77;;
61104;SDS011;46987;32.638;-115.438;2023-12-29T08:53:30;48.30;;;21.67;;
61104;SDS011;46987;32.638;-115.438;2023-12-29T08:56:00;45.10;;;21.63;;
61104;SDS011;46987;32.638;-115.438;2023-12-29T08:58:26;39.17;;;19.63;;
61104;SDS011;46987;32.638;-115.438;2023-12-29T09:00:55;37.50;;;20.13;;
61104;SDS011;46987;32.638;-115.438;2023-12-29T09:03:21;45.65;;;20.15;;
61104;SDS011;46987;32.638;-115.438;2023-12-29T09:05:48;42.83;;;20.30;;
61104;SDS011;46987;32.638;-115.438;2023-12-29T09:08:14;36.85;;;20.20;;
61104;SDS011;46987;32.638;-115.438;2023-12-29T09:10:41;37.30;;;19.55;;
61104;SDS011;46987;32.638;-115.438;2023-12-29T09:13:08;29.90;;;15.93;;
61104;SDS011;46987;32.638;-115.438;2023-12-29T09:15:35;31.88;;;15.85;;
61104;SDS011;46987;32.638;-115.438;2023-12-29T09:18:04;29.45;;;15.63;;
61104;SDS011;46987;32.638;-115.438;2023-12-29T09:20:30;31.75;;;16.33;;
61104;SDS011;46987;32.638;-115.438;2023-12-29T09:22:57;32.85;;;17.65;;
61104;SDS011;46987;32.638;-115.438;2023-12-29T09:25:24;27.85;;;16.23;;
61104;SDS011;46987;32.638;-115.438;2023-12-29T09:27:50;32.08;;;16.80;;
61104;SDS011;46987;32.638;-115.438;2023-12-29T09:30:18;33.75;;;17.00;;
61104;SDS011;46987;32.638;-115.438;2023-12-29T09:32:45;30.67;;;18.02;;
61104;SDS011;46987;32.638;-115.438;2023-12-29T09:35:13;33.22;;;17.90;;
61104;SDS011;46987;32.638;-115.438;2023-12-29T09:37:40;40.65;;;19.50;;
61104;SDS011;46987;32.638;-115.438;2023-12-29T09:40:07;35.75;;;19.30;;
61104;SDS011;46987;32.638;-115.438;2023-12-29T09:42:33;37.80;;;19.05;;
61104;SDS011;46987;32.638;-115.438;2023-12-29T09:45:01;35.47;;;18.58;;
61104;SDS011;46987;32.638;-115.438;2023-12-29T09:47:29;34.55;;;18.33;;
61104;SDS011;46987;32.638;-115.438;2023-12-29T09:49:57;40.20;;;17.85;;
61104;SDS011;46987;32.638;-115.438;2023-12-29T09:52:25;35.03;;;18.75;;
61104;SDS011;46987;32.638;-115.438;2023-12-29T09:54:52;33.42;;;18.17;;
61104;SDS011;46987;32.638;-115.438;2023-12-29T09:57:19;32.90;;;18.88;;
61104;SDS011;46987;32.638;-115.438;2023-12-29T09:59:46;34.67;;;17.45;;
61104;SDS011;46987;32.638;-115.438;2023-12-29T10:02:14;34.25;;;16.60;;
61104;SDS011;46987;32.638;-115.438;2023-12-29T10:04:44;36.13;;;16.83;;
61104;SDS011;46987;32.638;-115.438;2023-12-29T10:07:13;31.55;;;17.83;;
61104;SDS011;46987;32.638;-115.438;2023-12-29T10:09:48;34.17;;;17.80;;
61104;SDS011;46987;32.638;-115.438;2023-12-29T10:12:17;33.65;;;17.77;;
61104;SDS011;46987;32.638;-115.438;2023-12-29T10:14:48;34.78;;;17.98;;
61104;SDS011;46987;32.638;-115.438;2023-12-29T10:17:19;33.47;;;17.10;;
61104;SDS011;46987;32.638;-115.438;2023-12-29T10:19:48;35.72;;;18.40;;
61104;SDS011;46987;32.638;-115.438;2023-12-29T10:22:18;34.65;;;17.63;;
61104;SDS011;46987;32.638;-115.438;2023-12-29T10:24:48;39.88;;;17.40;;
61104;SDS011;46987;32.638;-115.438;2023-12-29T10:27:16;30.90;;;18.35;;
61104;SDS011;46987;32.638;-115.438;2023-12-29T10:29:43;28.73;;;17.20;;
61104;SDS011;46987;32.638;-115.438;2023-12-29T10:32:09;32.92;;;18.45;;
61104;SDS011;46987;32.638;-115.438;2023-12-29T10:34:36;29.50;;;17.33;;
61104;SDS011;46987;32.638;-115.438;2023-12-29T10:37:03;33.70;;;17.13;;
61104;SDS011;46987;32.638;-115.438;2023-12-29T10:39:39;32.42;;;17.00;;
61104;SDS011;46987;32.638;-115.438;2023-12-29T10:42:22;30.42;;;18.83;;
61104;SDS011;46987;32.638;-115.438;2023-12-29T10:44:49;29.73;;;16.90;;
61104;SDS011;46987;32.638;-115.438;2023-12-29T10:47:30;30.20;;;15.23;;
61104;SDS011;46987;32.638;-115.438;2023-12-29T10:49:58;28.08;;;15.65;;
61104;SDS011;46987;32.638;-115.438;2023-12-29T10:52:25;23.77;;;14.90;;
61104;SDS011;46987;32.638;-115.438;2023-12-29T10:54:54;24.77;;;14.70;;
61104;SDS011;46987;32.638;-115.438;2023-12-29T10:57:32;21.85;;;14.13;;
61104;SDS011;46987;32.638;-115.438;2023-12-29T10:59:59;27.02;;;14.10;;
61104;SDS011;46987;32.638;-115.438;2023-12-29T11:02:29;28.85;;;14.00;;
61104;SDS011;46987;32.638;-115.438;2023-12-29T11:05:03;18.33;;;11.88;;
61104;SDS011;46987;32.638;-115.438;2023-12-29T11:07:34;24.95;;;13.02;;
61104;SDS011;46987;32.638;-115.438;2023-12-29T11:10:01;25.20;;;13.60;;
61104;SDS011;46987;32.638;-115.438;2023-12-29T11:12:29;24.83;;;12.20;;
61104;SDS011;46987;32.638;-115.438;2023-12-29T11:14:57;23.77;;;13.00;;
61104;SDS011;46987;32.638;-115.438;2023-12-29T11:17:24;23.92;;;12.63;;
61104;SDS011;46987;32.638;-115.438;2023-12-29T11:19:52;22.83;;;12.07;;
61104;SDS011;46987;32.638;-115.438;2023-12-29T11:22:19;22.85;;;12.38;;
61104;SDS011;46987;32.638;-115.438;2023-12-29T11:24:47;29.55;;;12.38;;
61104;SDS011;46987;32.638;-115.438;2023-12-29T11:27:13;25.48;;;11.20;;
61104;SDS011;46987;32.638;-115.438;2023-12-29T11:29:40;19.52;;;11.57;;
61104;SDS011;46987;32.638;-115.438;2023-12-29T11:32:11;22.42;;;12.00;;
61104;SDS011;46987;32.638;-115.438;2023-12-29T11:34:39;27.92;;;12.18;;
61104;SDS011;46987;32.638;-115.438;2023-12-29T11:37:11;22.17;;;12.45;;
61104;SDS011;46987;32.638;-115.438;2023-12-29T11:39:44;19.75;;;11.48;;
61104;SDS011;46987;32.638;-115.438;2023-12-29T11:42:13;25.45;;;13.10;;
61104;SDS011;46987;32.638;-115.438;2023-12-29T11:44:40;23.73;;;12.45;;
61104;SDS011;46987;32.638;-115.438;2023-12-29T11:47:06;22.27;;;12.93;;
61104;SDS011;46987;32.638;-115.438;2023-12-29T11:50:01;23.50;;;11.75;;
61104;SDS011;46987;32.638;-115.438;2023-12-29T11:52:34;29.00;;;13.35;;
61104;SDS011;46987;32.638;-115.438;2023-12-29T11:55:08;27.23;;;14.25;;
61104;SDS011;46987;32.638;-115.438;2023-12-29T11:57:35;23.92;;;14.02;;
61104;SDS011;46987;32.638;-115.438;2023-12-29T12:00:02;27.27;;;13.35;;
61104;SDS011;46987;32.638;-115.438;2023-12-29T12:02:37;26.92;;;14.73;;
61104;SDS011;46987;32.638;-115.438;2023-12-29T12:05:06;32.28;;;14.50;;
61104;SDS011;46987;32.638;-115.438;2023-12-29T12:10:30;25.55;;;14.10;;
61104;SDS011;46987;32.638;-115.438;2023-12-29T12:12:58;26.33;;;14.67;;
61104;SDS011;46987;32.638;-115.438;2023-12-29T12:15:31;30.25;;;15.30;;
61104;SDS011;46987;32.638;-115.438;2023-12-29T12:20:26;30.77;;;15.52;;
61104;SDS011;46987;32.638;-115.438;2023-12-29T12:22:56;27.15;;;15.32;;
61104;SDS011;46987;32.638;-115.438;2023-12-29T12:25:24;31.30;;;16.83;;
61104;SDS011;46987;32.638;-115.438;2023-12-29T12:27:52;25.88;;;15.70;;
61104;SDS011;46987;32.638;-115.438;2023-12-29T12:30:18;35.50;;;17.90;;
61104;SDS011;46987;32.638;-115.438;2023-12-29T12:32:45;39.42;;;18.23;;
61104;SDS011;46987;32.638;-115.438;2023-12-29T12:35:15;30.35;;;17.60;;
61104;SDS011;46987;32.638;-115.438;2023-12-29T12:37:46;26.70;;;14.70;;
61104;SDS011;46987;32.638;-115.438;2023-12-29T12:40:24;28.05;;;15.75;;
61104;SDS011;46987;32.638;-115.438;2023-12-29T12:42:50;24.02;;;13.07;;
61104;SDS011;46987;32.638;-115.438;2023-12-29T12:45:17;23.65;;;13.50;;
61104;SDS011;46987;32.638;-115.438;2023-12-29T12:47:49;25.65;;;13.95;;
61104;SDS011;46987;32.638;-115.438;2023-12-29T12:50:17;27.75;;;14.30;;
61104;SDS011;46987;32.638;-115.438;2023-12-29T12:52:43;21.40;;;13.25;;
61104;SDS011;46987;32.638;-115.438;2023-12-29T12:55:13;22.25;;;12.55;;
61104;SDS011;46987;32.638;-115.438;2023-12-29T12:57:40;24.08;;;12.48;;
61104;SDS011;46987;32.638;-115.438;2023-12-29T13:00:07;25.55;;;14.15;;
61104;SDS011;46987;32.638;-115.438;2023-12-29T13:02:35;20.40;;;13.98;;
61104;SDS011;46987;32.638;-115.438;2023-12-29T13:05:02;26.13;;;14.65;;
61104;SDS011;46987;32.638;-115.438;2023-12-29T13:07:33;21.77;;;12.88;;
61104;SDS011;46987;32.638;-115.438;2023-12-29T13:10:00;29.63;;;14.13;;
61104;SDS011;46987;32.638;-115.438;2023-12-29T13:12:29;26.52;;;13.70;;
61104;SDS011;46987;32.638;-115.438;2023-12-29T13:15:04;25.83;;;12.77;;
61104;SDS011;46987;32.638;-115.438;2023-12-29T13:17:32;21.38;;;12.63;;
61104;SDS011;46987;32.638;-115.438;2023-12-29T13:19:58;24.23;;;12.05;;
61104;SDS011;46987;32.638;-115.438;2023-12-29T13:22:25;23.58;;;13.48;;
61104;SDS011;46987;32.638;-115.438;2023-12-29T13:24:54;21.90;;;12.88;;
61104;SDS011;46987;32.638;-115.438;2023-12-29T13:27:21;23.25;;;12.52;;
61104;SDS011;46987;32.638;-115.438;2023-12-29T13:29:50;19.65;;;12.25;;
61104;SDS011;46987;32.638;-115.438;2023-12-29T13:32:19;22.55;;;13.45;;
61104;SDS011;46987;32.638;-115.438;2023-12-29T13:34:49;22.20;;;13.35;;
61104;SDS011;46987;32.638;-115.438;2023-12-29T13:37:18;22.05;;;15.23;;
61104;SDS011;46987;32.638;-115.438;2023-12-29T13:39:46;34.53;;;14.80;;
61104;SDS011;46987;32.638;-115.438;2023-12-29T13:42:17;23.35;;;13.63;;
61104;SDS011;46987;32.638;-115.438;2023-12-29T13:44:45;23.50;;;12.45;;
61104;SDS011;46987;32.638;-115.438;2023-12-29T13:47:14;21.55;;;13.35;;
61104;SDS011;46987;32.638;-115.438;2023-12-29T13:49:41;24.90;;;14.32;;
61104;SDS011;46987;32.638;-115.438;2023-12-29T13:52:07;30.70;;;14.50;;
61104;SDS011;46987;32.638;-115.438;2023-12-29T13:54:40;25.08;;;13.23;;
61104;SDS011;46987;32.638;-115.438;2023-12-29T13:57:08;27.05;;;12.00;;